createdAt,value
2024-05-09T00:01:55.594Z,51.49
2024-05-09T00:04:26.701Z,51.39
2024-05-09T00:06:57.869Z,51.53
2024-05-09T00:09:29.029Z,51.50
2024-05-09T00:12:00.354Z,51.63
2024-05-09T00:14:31.661Z,51.56
2024-05-09T00:17:02.832Z,51.53
2024-05-09T00:19:34.422Z,51.79
2024-05-09T00:22:06.004Z,52.12
2024-05-09T00:24:37.498Z,51.99
2024-05-09T00:27:09.994Z,52.06
2024-05-09T00:29:42.441Z,52.10
2024-05-09T00:32:13.652Z,52.13
2024-05-09T00:34:44.871Z,52.09
2024-05-09T00:37:16.246Z,51.97
2024-05-09T00:39:47.527Z,51.75
2024-05-09T00:42:18.716Z,51.87
2024-05-09T00:44:50.066Z,51.91
2024-05-09T00:47:21.446Z,51.92
2024-05-09T00:49:52.620Z,52.35
2024-05-09T00:52:24.881Z,51.95
2024-05-09T00:54:57.099Z,52.13
2024-05-09T00:57:28.912Z,52.23
2024-05-09T01:00:01.689Z,52.07
2024-05-09T01:02:33.274Z,52.18
2024-05-09T01:05:05.040Z,52.10
2024-05-09T01:07:36.260Z,52.01
2024-05-09T01:10:14.115Z,52.28
2024-05-09T01:12:52.014Z,52.23
2024-05-09T01:15:23.077Z,52.35
2024-05-09T01:17:55.512Z,52.35
2024-05-09T01:20:37.223Z,52.08
2024-05-09T01:23:15.366Z,52.12
2024-05-09T01:25:47.029Z,52.21
2024-05-09T01:28:18.712Z,52.07
2024-05-09T01:30:50.004Z,52.22
2024-05-09T01:33:21.242Z,52.43
2024-05-09T01:35:52.494Z,52.45
2024-05-09T01:38:23.674Z,52.49
2024-05-09T01:40:55.088Z,52.66
2024-05-09T01:43:26.192Z,52.50
2024-05-09T01:45:57.345Z,52.52
2024-05-09T01:48:28.603Z,52.64
2024-05-09T01:50:59.831Z,52.49
2024-05-09T01:53:31.182Z,52.44
2024-05-09T01:56:02.374Z,52.39
2024-05-09T01:58:33.624Z,52.47
2024-05-09T02:01:05.327Z,52.60
2024-05-09T02:03:36.584Z,52.76
2024-05-09T02:06:08.378Z,52.96
2024-05-09T02:08:40.643Z,52.78
2024-05-09T02:11:12.076Z,52.76
2024-05-09T02:13:44.309Z,52.61
2024-05-09T02:16:15.516Z,52.64
2024-05-09T02:18:46.645Z,52.56
2024-05-09T02:21:17.803Z,52.35
2024-05-09T02:23:48.895Z,52.44
2024-05-09T02:26:20.044Z,52.55
2024-05-09T02:28:51.199Z,52.51
2024-05-09T02:31:22.529Z,52.70
2024-05-09T02:33:53.944Z,52.76
2024-05-09T02:36:25.179Z,52.74
2024-05-09T02:38:56.287Z,52.98
2024-05-09T02:41:27.751Z,52.99
2024-05-09T02:43:58.957Z,53.24
2024-05-09T02:46:30.109Z,53.28
2024-05-09T02:49:01.408Z,53.13
2024-05-09T02:51:32.688Z,53.32
2024-05-09T02:54:03.833Z,53.25
2024-05-09T02:56:34.967Z,53.42
2024-05-09T02:59:06.192Z,53.58
2024-05-09T03:01:37.607Z,53.76
2024-05-09T03:04:08.985Z,53.67
2024-05-09T03:06:42.942Z,53.83
2024-05-09T03:09:14.116Z,53.68
2024-05-09T03:11:45.836Z,53.76
2024-05-09T03:14:19.384Z,53.97
2024-05-09T03:16:50.602Z,54.10
2024-05-09T03:19:22.083Z,54.38
2024-05-09T03:21:53.335Z,54.36
2024-05-09T03:24:24.671Z,54.63
2024-05-09T03:26:55.985Z,54.68
2024-05-09T03:29:27.251Z,54.84
2024-05-09T03:31:59.087Z,54.74
2024-05-09T03:34:30.336Z,54.95
2024-05-09T03:37:01.484Z,54.84
2024-05-09T03:39:32.704Z,54.73
2024-05-09T03:42:04.192Z,54.88
2024-05-09T03:44:35.422Z,54.86
2024-05-09T03:47:06.826Z,54.83
2024-05-09T03:49:38.069Z,54.74
2024-05-09T03:52:09.505Z,54.91
2024-05-09T03:54:47.191Z,54.95
2024-05-09T03:57:18.390Z,54.88
2024-05-09T03:59:49.676Z,55.07
2024-05-09T04:02:21.091Z,55.37
2024-05-09T04:04:52.451Z,55.45
2024-05-09T04:07:23.968Z,55.67
2024-05-09T04:09:54.987Z,56.01
2024-05-09T04:12:26.327Z,56.31
2024-05-09T04:14:57.505Z,56.42
2024-05-09T04:17:28.977Z,56.45
2024-05-09T04:20:00.393Z,56.66
2024-05-09T04:22:31.723Z,56.55
2024-05-09T04:25:02.822Z,56.49
2024-05-09T04:27:34.080Z,56.65
2024-05-09T04:30:09.873Z,56.95
2024-05-09T04:32:44.030Z,56.76
2024-05-09T04:35:18.138Z,57.14
2024-05-09T04:37:49.540Z,57.17
2024-05-09T04:40:28.299Z,57.43
2024-05-09T04:43:06.042Z,57.52
2024-05-09T04:45:40.004Z,57.83
2024-05-09T04:48:11.957Z,57.87
2024-05-09T04:50:43.627Z,58.00
2024-05-09T04:53:17.535Z,58.21
2024-05-09T04:55:48.838Z,58.25
2024-05-09T04:58:20.010Z,57.40
2024-05-09T05:00:51.098Z,57.44
2024-05-09T05:03:22.768Z,57.05
2024-05-09T05:05:54.304Z,56.97
2024-05-09T05:08:25.481Z,57.14
2024-05-09T05:10:57.622Z,57.18
2024-05-09T05:13:32.855Z,56.55
2024-05-09T05:16:04.765Z,56.75
2024-05-09T05:18:36.066Z,56.68
2024-05-09T05:21:07.814Z,55.99
2024-05-09T05:23:40.566Z,56.01
2024-05-09T05:26:11.772Z,56.01
2024-05-09T05:28:42.849Z,55.57
2024-05-09T05:31:15.463Z,55.79
2024-05-09T05:33:49.167Z,55.21
2024-05-09T05:36:20.398Z,54.73
2024-05-09T05:38:51.757Z,54.30
2024-05-09T05:41:23.108Z,54.35
2024-05-09T05:43:54.396Z,54.15
2024-05-09T05:46:25.752Z,53.73
2024-05-09T05:48:57.239Z,53.46
2024-05-09T05:51:28.490Z,53.61
2024-05-09T05:54:02.191Z,53.28
2024-05-09T05:56:33.410Z,52.95
2024-05-09T05:59:04.983Z,52.40
2024-05-09T06:01:36.099Z,52.47
2024-05-09T06:04:07.544Z,52.65
2024-05-09T06:06:38.626Z,52.13
2024-05-09T06:09:09.707Z,51.91
2024-05-09T06:11:42.823Z,51.63
2024-05-09T06:14:14.146Z,52.02
2024-05-09T06:16:45.338Z,51.69
2024-05-09T06:19:16.684Z,50.52
2024-05-09T06:21:47.852Z,50.06
2024-05-09T06:24:19.642Z,49.91
2024-05-09T06:26:50.723Z,49.08
2024-05-09T06:29:21.835Z,48.56
2024-05-09T06:31:53.006Z,47.89
2024-05-09T06:34:24.316Z,47.55
2024-05-09T06:36:55.525Z,47.92
2024-05-09T06:39:26.710Z,47.65
2024-05-09T06:41:57.874Z,47.40
2024-05-09T06:44:29.327Z,47.01
2024-05-09T06:47:00.631Z,47.00
2024-05-09T06:49:32.694Z,46.89
2024-05-09T06:52:04.051Z,46.55
2024-05-09T06:54:35.108Z,46.71
2024-05-09T06:57:06.782Z,46.69
2024-05-09T06:59:38.166Z,46.61
2024-05-09T07:02:09.340Z,46.29
2024-05-09T07:04:41.080Z,46.58
2024-05-09T07:07:12.775Z,46.11
2024-05-09T07:09:43.948Z,46.58
2024-05-09T07:12:15.297Z,46.54
2024-05-09T07:14:46.528Z,46.32
2024-05-09T07:17:17.724Z,46.65
2024-05-09T07:19:48.917Z,46.38
2024-05-09T07:22:20.024Z,46.15
2024-05-09T07:24:51.274Z,45.77
2024-05-09T07:27:25.521Z,45.95
2024-05-09T07:29:57.624Z,45.62
2024-05-09T07:32:28.983Z,45.89
2024-05-09T07:35:00.708Z,45.88
2024-05-09T07:37:31.920Z,44.48
2024-05-09T07:40:05.790Z,45.00
2024-05-09T07:42:36.484Z,44.56
2024-05-09T07:45:29.579Z,44.44
2024-05-09T07:52:32.397Z,43.53
2024-05-09T07:53:39.851Z,43.90
2024-05-09T07:56:17.747Z,43.97
2024-05-09T07:58:50.410Z,42.60
2024-05-09T08:01:25.358Z,42.95
2024-05-09T08:03:56.862Z,42.44
2024-05-09T08:06:28.522Z,42.51
2024-05-09T08:09:05.125Z,42.37
2024-05-09T08:11:39.138Z,41.88
2024-05-09T08:14:10.395Z,41.35
2024-05-09T08:16:41.477Z,41.76
2024-05-09T08:19:12.824Z,41.98
2024-05-09T08:21:44.107Z,42.08
2024-05-09T08:24:15.142Z,41.97
2024-05-09T08:26:46.499Z,41.60
2024-05-09T08:29:17.628Z,41.82
2024-05-09T08:31:48.813Z,42.73
2024-05-09T08:34:20.676Z,42.77
2024-05-09T08:36:52.247Z,41.36
2024-05-09T08:39:23.601Z,42.23
2024-05-09T08:41:54.651Z,42.05
2024-05-09T08:44:25.841Z,42.26
2024-05-09T08:46:57.218Z,42.61
2024-05-09T08:49:28.438Z,41.41
2024-05-09T08:51:59.753Z,40.62
2024-05-09T08:54:31.180Z,41.40
2024-05-09T08:57:03.137Z,41.50
2024-05-09T08:59:36.692Z,41.97
2024-05-09T09:02:12.591Z,43.24
2024-05-09T09:04:48.635Z,41.59
2024-05-09T09:07:22.365Z,41.10
2024-05-09T09:09:54.774Z,40.46
2024-05-09T09:12:25.839Z,40.33
2024-05-09T09:14:56.894Z,40.66
2024-05-09T09:17:28.032Z,40.37
2024-05-09T09:20:01.466Z,40.23
2024-05-09T09:22:34.824Z,40.47
2024-05-09T09:25:06.353Z,40.85
2024-05-09T09:27:37.859Z,41.41
2024-05-09T09:30:22.934Z,41.72
2024-05-09T09:33:01.465Z,38.68
2024-05-09T09:35:32.927Z,38.92
2024-05-09T09:38:05.804Z,38.58
2024-05-09T09:40:42.851Z,39.25
2024-05-09T09:43:22.634Z,39.49
2024-05-09T09:45:55.759Z,39.24
2024-05-09T09:48:28.399Z,37.65
2024-05-09T09:51:00.171Z,37.76
2024-05-09T09:53:32.510Z,37.73
2024-05-09T09:56:03.994Z,38.26
2024-05-09T09:58:37.021Z,36.84
2024-05-09T10:01:08.399Z,36.62
2024-05-09T10:03:39.892Z,36.66
2024-05-09T10:06:13.210Z,36.32
2024-05-09T10:12:59.704Z,38.37
2024-05-09T10:15:31.490Z,38.60
2024-05-09T10:18:08.030Z,38.62
2024-05-09T10:20:46.230Z,38.29
2024-05-09T10:23:28.182Z,35.85
2024-05-09T10:26:04.450Z,36.21
2024-05-09T10:28:37.262Z,36.85
2024-05-09T10:31:13.328Z,36.98
2024-05-09T10:33:49.982Z,36.28
2024-05-09T10:36:23.242Z,35.05
2024-05-09T10:38:55.423Z,34.91
2024-05-09T10:41:26.548Z,36.97
2024-05-09T10:43:57.601Z,38.45
2024-05-09T10:46:28.758Z,38.03
2024-05-09T10:49:03.312Z,37.30
2024-05-09T10:51:37.025Z,37.27
2024-05-09T10:54:08.447Z,35.42
2024-05-09T10:56:39.661Z,35.93
2024-05-09T10:59:13.197Z,36.31
2024-05-09T11:01:44.686Z,36.03
2024-05-09T11:04:16.531Z,35.33
2024-05-09T11:06:49.317Z,34.88
2024-05-09T11:09:20.656Z,35.13
2024-05-09T11:11:51.947Z,36.79
2024-05-09T11:14:23.100Z,35.93
2024-05-09T11:17:01.775Z,35.27
2024-05-09T11:19:34.042Z,35.10
2024-05-09T11:22:05.694Z,33.98
2024-05-09T11:24:37.507Z,34.10
2024-05-09T11:27:08.574Z,33.00
2024-05-09T11:29:40.759Z,33.11
2024-05-09T11:32:14.710Z,33.49
2024-05-09T11:34:45.838Z,33.07
2024-05-09T11:37:17.131Z,32.90
2024-05-09T11:39:48.623Z,32.52
2024-05-09T11:42:20.569Z,33.17
2024-05-09T11:44:51.743Z,34.07
2024-05-09T11:47:23.048Z,33.80
2024-05-09T11:49:56.058Z,33.74
2024-05-09T11:52:27.429Z,34.68
2024-05-09T11:54:58.574Z,35.09
2024-05-09T11:57:30.864Z,32.73
2024-05-09T12:00:02.333Z,32.97
2024-05-09T12:02:35.833Z,32.57
2024-05-09T12:05:07.456Z,32.11
2024-05-09T12:07:38.708Z,31.80
2024-05-09T12:10:16.566Z,31.68
2024-05-09T12:12:50.584Z,32.49
2024-05-09T12:15:21.697Z,33.05
2024-05-09T12:17:52.926Z,31.96
2024-05-09T12:20:32.396Z,31.62
2024-05-09T12:23:09.480Z,31.23
2024-05-09T12:25:41.791Z,30.31
2024-05-09T12:28:12.994Z,30.95
2024-05-09T12:30:44.375Z,31.34
2024-05-09T12:33:15.666Z,30.95
2024-05-09T12:35:49.242Z,30.40
2024-05-09T12:38:22.044Z,31.92
2024-05-09T12:40:53.292Z,32.23
2024-05-09T12:43:24.610Z,32.27
2024-05-09T12:45:56.003Z,31.78
2024-05-09T12:48:27.230Z,30.70
2024-05-09T12:50:58.358Z,31.16
2024-05-09T12:53:29.464Z,30.60
2024-05-09T12:56:02.918Z,30.67
2024-05-09T12:58:35.576Z,31.05
2024-05-09T13:01:07.051Z,31.06
2024-05-09T13:03:38.355Z,32.04
2024-05-09T13:06:09.790Z,30.86
2024-05-09T13:08:41.244Z,31.60
2024-05-09T13:11:12.865Z,30.78
2024-05-09T13:13:45.204Z,31.33
2024-05-09T13:16:16.442Z,31.13
2024-05-09T13:18:47.794Z,31.69
2024-05-09T13:21:18.874Z,32.24
2024-05-09T13:23:50.050Z,33.58
2024-05-09T13:26:21.274Z,32.45
2024-05-09T13:28:52.392Z,31.15
2024-05-09T13:31:23.595Z,31.48
2024-05-09T13:33:54.788Z,32.14
2024-05-09T13:36:26.068Z,31.22
2024-05-09T13:38:57.380Z,31.74
2024-05-09T13:41:28.604Z,30.04
2024-05-09T13:43:59.708Z,30.68
2024-05-09T13:46:31.038Z,30.02
2024-05-09T13:49:02.393Z,30.11
2024-05-09T13:51:33.676Z,30.71
2024-05-09T13:54:05.275Z,29.79
2024-05-09T13:56:39.102Z,30.06
2024-05-09T13:59:10.788Z,30.03
2024-05-09T14:01:41.990Z,31.19
2024-05-09T14:04:13.540Z,30.02
2024-05-09T14:06:44.943Z,29.76
2024-05-09T14:09:16.296Z,29.54
2024-05-09T14:11:47.526Z,30.25
2024-05-09T14:14:18.627Z,29.94
2024-05-09T14:16:50.034Z,30.20
2024-05-09T14:19:21.412Z,29.92
2024-05-09T14:21:52.564Z,29.27
2024-05-09T14:24:23.651Z,29.20
2024-05-09T14:26:54.796Z,29.51
2024-05-09T14:29:25.996Z,29.81
2024-05-09T14:31:57.048Z,29.97
2024-05-09T14:34:28.391Z,29.82
2024-05-09T14:36:59.747Z,29.55
2024-05-09T14:39:30.883Z,29.75
2024-05-09T14:42:02.091Z,30.00
2024-05-09T14:44:33.400Z,30.41
2024-05-09T14:47:04.952Z,29.72
2024-05-09T14:49:36.089Z,29.85
2024-05-09T14:52:08.191Z,29.95
2024-05-09T14:54:39.472Z,30.06
2024-05-09T14:57:11.753Z,29.90
2024-05-09T14:59:43.018Z,30.52
2024-05-09T15:02:14.498Z,30.83
2024-05-09T15:04:45.833Z,31.60
2024-05-09T15:07:17.510Z,30.29
2024-05-09T15:09:48.844Z,32.11
2024-05-09T15:12:20.119Z,30.96
2024-05-09T15:14:52.068Z,31.48
2024-05-09T15:17:23.171Z,32.80
2024-05-09T15:19:54.818Z,32.67
2024-05-09T15:22:26.241Z,33.46
2024-05-09T15:24:57.426Z,33.01
2024-05-09T15:27:28.808Z,32.20
2024-05-09T15:30:02.013Z,31.66
2024-05-09T15:32:33.624Z,32.02
2024-05-09T15:35:05.259Z,31.59
2024-05-09T15:37:36.662Z,32.14
2024-05-09T15:40:15.336Z,32.22
2024-05-09T15:42:53.096Z,34.26
2024-05-09T15:45:24.308Z,33.91
2024-05-09T15:47:55.431Z,32.12
2024-05-09T15:50:36.484Z,33.48
2024-05-09T15:53:12.992Z,33.25
2024-05-09T15:55:45.074Z,33.47
2024-05-09T15:58:16.528Z,33.63
2024-05-09T16:00:49.756Z,33.57
2024-05-09T16:03:22.919Z,33.41
2024-05-09T16:05:57.158Z,33.54
2024-05-09T16:08:28.467Z,33.26
2024-05-09T16:10:59.667Z,33.43
2024-05-09T16:13:30.958Z,33.64
2024-05-09T16:16:02.814Z,33.56
2024-05-09T16:18:34.054Z,33.24
2024-05-09T16:21:05.688Z,33.11
2024-05-09T16:23:39.220Z,33.02
2024-05-09T16:26:10.407Z,33.19
2024-05-09T16:28:41.577Z,33.02
2024-05-09T16:31:12.706Z,33.54
2024-05-09T16:33:44.078Z,33.68
2024-05-09T16:36:15.280Z,34.11
2024-05-09T16:38:46.370Z,34.51
2024-05-09T16:41:17.439Z,34.38
2024-05-09T16:43:48.624Z,34.44
2024-05-09T16:46:20.080Z,34.87
2024-05-09T16:48:51.673Z,36.25
2024-05-09T16:51:22.804Z,34.96
2024-05-09T16:53:54.123Z,34.56
2024-05-09T16:56:27.026Z,34.12
2024-05-09T16:58:58.502Z,33.72
2024-05-09T17:01:30.632Z,34.16
2024-05-09T17:04:02.044Z,34.07
2024-05-09T17:06:33.320Z,34.91
2024-05-09T17:09:11.300Z,35.30
2024-05-09T17:11:44.016Z,35.61
2024-05-09T17:14:15.766Z,35.79
2024-05-09T17:16:47.237Z,35.34
2024-05-09T17:19:18.528Z,35.68
2024-05-09T17:21:49.776Z,34.67
2024-05-09T17:24:21.029Z,35.67
2024-05-09T17:26:52.975Z,37.83
2024-05-09T17:29:24.221Z,37.57
2024-05-09T17:31:55.372Z,36.04
2024-05-09T17:34:27.444Z,36.91
2024-05-09T17:37:00.121Z,36.41
2024-05-09T17:39:31.280Z,36.69
2024-05-09T17:42:02.394Z,37.48
2024-05-09T17:44:33.642Z,37.49
2024-05-09T17:47:06.118Z,37.58
2024-05-09T17:49:37.322Z,38.27
2024-05-09T17:52:09.205Z,38.67
2024-05-09T17:54:40.530Z,38.85
2024-05-09T17:57:11.794Z,39.51
2024-05-09T17:59:42.900Z,39.01
2024-05-09T18:02:14.524Z,39.70
2024-05-09T18:04:45.887Z,40.16
2024-05-09T18:07:17.232Z,40.43
2024-05-09T18:09:48.381Z,40.51
2024-05-09T18:12:19.614Z,40.49
2024-05-09T18:14:50.821Z,40.17
2024-05-09T18:17:25.240Z,41.20
2024-05-09T18:19:56.974Z,41.30
2024-05-09T18:22:28.261Z,41.54
2024-05-09T18:24:59.411Z,42.07
2024-05-09T18:27:30.807Z,42.43
2024-05-09T18:30:01.976Z,42.40
2024-05-09T18:32:33.297Z,42.55
2024-05-09T18:35:04.743Z,42.81
2024-05-09T18:37:35.933Z,43.63
2024-05-09T18:40:12.194Z,44.35
2024-05-09T18:42:49.741Z,44.92
2024-05-09T18:45:20.906Z,45.62
2024-05-09T18:47:52.311Z,45.75
2024-05-09T18:50:31.962Z,45.59
2024-05-09T18:53:07.841Z,45.91
2024-05-09T18:55:39.053Z,46.07
2024-05-09T18:58:10.472Z,46.48
2024-05-09T19:00:45.196Z,46.80
2024-05-09T19:03:18.753Z,46.94
2024-05-09T19:05:50.314Z,47.16
2024-05-09T19:08:21.490Z,47.25
2024-05-09T19:10:52.785Z,47.71
2024-05-09T19:13:24.786Z,48.01
2024-05-09T19:15:56.687Z,48.08
2024-05-09T19:18:27.923Z,48.26
2024-05-09T19:20:59.055Z,48.61
2024-05-09T19:23:32.533Z,48.37
2024-05-09T19:26:03.874Z,48.96
2024-05-09T19:28:35.041Z,48.77
2024-05-09T19:31:06.478Z,48.72
2024-05-09T19:33:38.349Z,48.96
2024-05-09T19:36:10.323Z,49.40
2024-05-09T19:38:41.529Z,49.79
2024-05-09T19:41:12.654Z,49.34
2024-05-09T19:43:43.904Z,49.47
2024-05-09T19:46:15.308Z,49.66
2024-05-09T19:48:46.554Z,49.86
2024-05-09T19:51:17.851Z,50.09
2024-05-09T19:53:50.453Z,50.46
2024-05-09T19:56:21.720Z,50.65
2024-05-09T19:58:52.890Z,50.71
2024-05-09T20:01:24.171Z,51.20
2024-05-09T20:03:58.776Z,51.19
2024-05-09T20:06:30.554Z,51.24
2024-05-09T20:09:01.649Z,51.52
2024-05-09T20:11:33.299Z,51.74
2024-05-09T20:14:04.524Z,51.50
2024-05-09T20:16:35.744Z,51.73
2024-05-09T20:19:07.207Z,51.73
2024-05-09T20:21:43.507Z,51.60
2024-05-09T20:24:14.750Z,51.89
2024-05-09T20:26:45.859Z,51.85
2024-05-09T20:29:17.056Z,51.97
2024-05-09T20:31:48.213Z,52.00
2024-05-09T20:34:19.298Z,51.93
2024-05-09T20:36:50.500Z,51.75
2024-05-09T20:39:26.932Z,51.90
2024-05-09T20:41:58.715Z,52.02
2024-05-09T20:44:30.123Z,52.11
2024-05-09T20:47:01.246Z,51.81
2024-05-09T20:49:32.530Z,52.10
2024-05-09T20:52:03.758Z,51.87
2024-05-09T20:54:34.917Z,52.11
2024-05-09T20:57:06.755Z,51.86
2024-05-09T20:59:39.918Z,51.75
2024-05-09T21:02:11.575Z,51.99
2024-05-09T21:04:43.004Z,51.54
2024-05-09T21:07:14.346Z,50.74
2024-05-09T21:09:47.229Z,51.06
2024-05-09T21:12:18.480Z,51.11
2024-05-09T21:14:49.648Z,51.45
2024-05-09T21:17:20.974Z,51.85
2024-05-09T21:19:52.351Z,51.48
2024-05-09T21:22:24.219Z,51.75
2024-05-09T21:24:55.310Z,52.02
2024-05-09T21:27:26.588Z,52.06
2024-05-09T21:29:57.675Z,51.76
2024-05-09T21:32:29.140Z,52.06
2024-05-09T21:35:00.303Z,51.71
2024-05-09T21:37:31.528Z,51.99
2024-05-09T21:40:09.158Z,52.21
2024-05-09T21:42:42.518Z,52.12
2024-05-09T21:45:13.711Z,52.41
2024-05-09T21:47:45.233Z,52.49
2024-05-09T21:50:22.773Z,52.73
2024-05-09T21:52:59.548Z,52.89
2024-05-09T21:55:30.679Z,52.83
2024-05-09T21:58:01.946Z,52.64
2024-05-09T22:00:37.768Z,52.76
2024-05-09T22:03:11.896Z,53.31
2024-05-09T22:05:44.872Z,52.97
2024-05-09T22:08:16.619Z,53.04
2024-05-09T22:10:47.686Z,53.22
2024-05-09T22:13:20.061Z,53.42
2024-05-09T22:15:51.375Z,53.37
2024-05-09T22:18:22.728Z,53.56
2024-05-09T22:20:55.026Z,53.44
2024-05-09T22:23:26.117Z,53.59
2024-05-09T22:25:57.362Z,53.52
2024-05-09T22:28:28.478Z,53.74
2024-05-09T22:30:59.655Z,53.76
2024-05-09T22:33:31.049Z,53.87
2024-05-09T22:36:02.323Z,54.07
2024-05-09T22:38:33.512Z,53.93
2024-05-09T22:41:07.652Z,53.71
2024-05-09T22:43:38.837Z,53.86
2024-05-09T22:46:10.243Z,53.79
2024-05-09T22:48:41.684Z,53.68
2024-05-09T22:51:14.304Z,53.74
2024-05-09T22:53:45.363Z,53.88
2024-05-09T22:56:26.610Z,54.33
2024-05-09T22:58:57.966Z,54.44
2024-05-09T23:01:29.425Z,54.67
2024-05-09T23:04:00.699Z,54.71
2024-05-09T23:06:33.046Z,54.69
2024-05-09T23:09:04.239Z,54.85
2024-05-09T23:11:35.405Z,54.99
2024-05-09T23:14:06.770Z,55.12
2024-05-09T23:16:38.120Z,55.39
2024-05-09T23:19:10.139Z,55.33
2024-05-09T23:21:41.672Z,55.49
2024-05-09T23:24:12.912Z,55.60
2024-05-09T23:26:44.691Z,55.65
2024-05-09T23:29:16.125Z,55.87
2024-05-09T23:31:47.476Z,55.87
2024-05-09T23:34:18.836Z,55.91
2024-05-09T23:36:50.041Z,56.07
2024-05-09T23:39:21.288Z,56.14
2024-05-09T23:41:52.450Z,56.06
2024-05-09T23:44:23.506Z,56.03
2024-05-09T23:46:54.680Z,56.45
2024-05-09T23:49:26.039Z,56.36
2024-05-09T23:51:57.182Z,56.37
2024-05-09T23:54:28.275Z,56.48
2024-05-09T23:56:59.372Z,56.38
2024-05-09T23:59:30.574Z,56.47
